sensor_id;sensor_type;location;lat;lon;timestamp;P1;durP1;ratioP1;P2;durP2;ratioP2
26946;SDS011;14501;52.282;10.560;2023-01-30T00:00:33;20.23;;;11.63;;
26946;SDS011;14501;52.282;10.560;2023-01-30T00:02:59;21.23;;;11.85;;
26946;SDS011;14501;52.282;10.560;2023-01-30T00:05:25;21.73;;;12.20;;
26946;SDS011;14501;52.282;10.560;2023-01-30T00:07:50;22.20;;;11.90;;
26946;SDS011;14501;52.282;10.560;2023-01-30T00:10:16;21.33;;;11.85;;
26946;SDS011;14501;52.282;10.560;2023-01-30T00:12:44;21.83;;;11.52;;
26946;SDS011;14501;52.282;10.560;2023-01-30T00:15:09;19.33;;;11.43;;
26946;SDS011;14501;52.282;10.560;2023-01-30T00:17:35;20.05;;;11.15;;
26946;SDS011;14501;52.282;10.560;2023-01-30T00:20:01;24.27;;;12.65;;
26946;SDS011;14501;52.282;10.560;2023-01-30T00:22:27;19.38;;;11.02;;
26946;SDS011;14501;52.282;10.560;2023-01-30T00:24:53;20.00;;;11.98;;
26946;SDS011;14501;52.282;10.560;2023-01-30T00:27:21;21.85;;;11.73;;
26946;SDS011;14501;52.282;10.560;2023-01-30T00:29:46;21.02;;;11.52;;
26946;SDS011;14501;52.282;10.560;2023-01-30T00:32:12;18.88;;;11.23;;
26946;SDS011;14501;52.282;10.560;2023-01-30T00:34:37;19.45;;;10.95;;
26946;SDS011;14501;52.282;10.560;2023-01-30T00:37:03;21.25;;;11.60;;
26946;SDS011;14501;52.282;10.560;2023-01-30T00:39:29;21.38;;;11.77;;
26946;SDS011;14501;52.282;10.560;2023-01-30T00:41:54;22.80;;;12.13;;
26946;SDS011;14501;52.282;10.560;2023-01-30T00:44:38;23.52;;;11.77;;
26946;SDS011;14501;52.282;10.560;2023-01-30T00:47:23;22.30;;;11.65;;
26946;SDS011;14501;52.282;10.560;2023-01-30T00:49:49;21.02;;;11.32;;
26946;SDS011;14501;52.282;10.560;2023-01-30T00:52:15;19.83;;;11.35;;
26946;SDS011;14501;52.282;10.560;2023-01-30T00:54:40;21.10;;;11.48;;
26946;SDS011;14501;52.282;10.560;2023-01-30T00:57:06;19.63;;;10.68;;
26946;SDS011;14501;52.282;10.560;2023-01-30T00:59:33;21.50;;;11.00;;
26946;SDS011;14501;52.282;10.560;2023-01-30T01:01:59;20.38;;;11.18;;
26946;SDS011;14501;52.282;10.560;2023-01-30T01:04:24;19.70;;;10.60;;
26946;SDS011;14501;52.282;10.560;2023-01-30T01:06:50;20.15;;;11.07;;
26946;SDS011;14501;52.282;10.560;2023-01-30T01:09:15;21.60;;;12.57;;
26946;SDS011;14501;52.282;10.560;2023-01-30T01:11:41;23.48;;;12.40;;
26946;SDS011;14501;52.282;10.560;2023-01-30T01:14:07;21.85;;;11.52;;
26946;SDS011;14501;52.282;10.560;2023-01-30T01:16:33;23.05;;;11.25;;
26946;SDS011;14501;52.282;10.560;2023-01-30T01:18:59;23.00;;;11.45;;
26946;SDS011;14501;52.282;10.560;2023-01-30T01:21:25;23.42;;;12.50;;
26946;SDS011;14501;52.282;10.560;2023-01-30T01:23:52;22.88;;;12.13;;
26946;SDS011;14501;52.282;10.560;2023-01-30T01:26:26;22.25;;;11.80;;
26946;SDS011;14501;52.282;10.560;2023-01-30T01:28:55;21.45;;;11.40;;
26946;SDS011;14501;52.282;10.560;2023-01-30T01:31:22;20.17;;;12.05;;
26946;SDS011;14501;52.282;10.560;2023-01-30T01:33:48;24.85;;;12.20;;
26946;SDS011;14501;52.282;10.560;2023-01-30T01:36:14;22.98;;;12.05;;
26946;SDS011;14501;52.282;10.560;2023-01-30T01:38:41;20.67;;;11.80;;
26946;SDS011;14501;52.282;10.560;2023-01-30T01:41:07;23.60;;;12.27;;
26946;SDS011;14501;52.282;10.560;2023-01-30T01:44:19;24.20;;;12.90;;
26946;SDS011;14501;52.282;10.560;2023-01-30T01:46:30;25.10;;;12.73;;
26946;SDS011;14501;52.282;10.560;2023-01-30T01:49:01;22.73;;;13.07;;
26946;SDS011;14501;52.282;10.560;2023-01-30T01:54:07;26.05;;;12.80;;
26946;SDS011;14501;52.282;10.560;2023-01-30T01:56:37;24.17;;;13.65;;
26946;SDS011;14501;52.282;10.560;2023-01-30T01:59:08;24.95;;;13.57;;
26946;SDS011;14501;52.282;10.560;2023-01-30T02:01:38;26.35;;;14.15;;
26946;SDS011;14501;52.282;10.560;2023-01-30T02:04:03;26.73;;;13.55;;
26946;SDS011;14501;52.282;10.560;2023-01-30T02:06:33;27.75;;;13.90;;
26946;SDS011;14501;52.282;10.560;2023-01-30T02:09:01;27.10;;;14.48;;
26946;SDS011;14501;52.282;10.560;2023-01-30T02:12:03;25.63;;;14.18;;
26946;SDS011;14501;52.282;10.560;2023-01-30T02:14:24;27.42;;;13.90;;
26946;SDS011;14501;52.282;10.560;2023-01-30T02:16:50;26.17;;;13.85;;
26946;SDS011;14501;52.282;10.560;2023-01-30T02:19:22;26.33;;;13.68;;
26946;SDS011;14501;52.282;10.560;2023-01-30T02:22:07;31.17;;;14.88;;
26946;SDS011;14501;52.282;10.560;2023-01-30T02:30:31;29.05;;;15.23;;
26946;SDS011;14501;52.282;10.560;2023-01-30T02:33:07;28.52;;;15.43;;
26946;SDS011;14501;52.282;10.560;2023-01-30T02:36:08;30.60;;;15.18;;
26946;SDS011;14501;52.282;10.560;2023-01-30T02:39:06;31.27;;;14.55;;
26946;SDS011;14501;52.282;10.560;2023-01-30T02:41:56;25.40;;;14.13;;
26946;SDS011;14501;52.282;10.560;2023-01-30T02:44:26;25.92;;;14.27;;
26946;SDS011;14501;52.282;10.560;2023-01-30T02:47:20;27.77;;;14.57;;
26946;SDS011;14501;52.282;10.560;2023-01-30T02:49:53;31.17;;;15.35;;
26946;SDS011;14501;52.282;10.560;2023-01-30T02:52:24;28.23;;;14.70;;
26946;SDS011;14501;52.282;10.560;2023-01-30T02:54:51;33.58;;;15.70;;
26946;SDS011;14501;52.282;10.560;2023-01-30T02:57:21;30.25;;;15.43;;
26946;SDS011;14501;52.282;10.560;2023-01-30T02:59:50;27.80;;;14.00;;
26946;SDS011;14501;52.282;10.560;2023-01-30T03:07:49;30.58;;;15.32;;
26946;SDS011;14501;52.282;10.560;2023-01-30T03:16:12;26.73;;;14.18;;
26946;SDS011;14501;52.282;10.560;2023-01-30T03:18:42;26.30;;;13.98;;
26946;SDS011;14501;52.282;10.560;2023-01-30T03:21:08;27.77;;;13.77;;
26946;SDS011;14501;52.282;10.560;2023-01-30T03:23:35;26.33;;;13.75;;
26946;SDS011;14501;52.282;10.560;2023-01-30T03:26:02;27.48;;;14.07;;
26946;SDS011;14501;52.282;10.560;2023-01-30T03:28:29;24.70;;;13.40;;
26946;SDS011;14501;52.282;10.560;2023-01-30T03:30:56;27.38;;;14.32;;
26946;SDS011;14501;52.282;10.560;2023-01-30T03:33:22;26.42;;;13.38;;
26946;SDS011;14501;52.282;10.560;2023-01-30T03:35:48;24.73;;;13.02;;
26946;SDS011;14501;52.282;10.560;2023-01-30T03:38:15;25.67;;;13.68;;
26946;SDS011;14501;52.282;10.560;2023-01-30T03:40:42;24.45;;;12.38;;
26946;SDS011;14501;52.282;10.560;2023-01-30T03:43:08;23.80;;;13.35;;
26946;SDS011;14501;52.282;10.560;2023-01-30T03:45:33;23.55;;;12.30;;
26946;SDS011;14501;52.282;10.560;2023-01-30T03:47:59;26.15;;;13.05;;
26946;SDS011;14501;52.282;10.560;2023-01-30T03:50:24;23.73;;;13.40;;
26946;SDS011;14501;52.282;10.560;2023-01-30T03:52:50;26.83;;;13.90;;
26946;SDS011;14501;52.282;10.560;2023-01-30T03:55:16;25.75;;;14.18;;
26946;SDS011;14501;52.282;10.560;2023-01-30T03:57:41;25.10;;;13.68;;
26946;SDS011;14501;52.282;10.560;2023-01-30T04:00:08;28.25;;;14.30;;
26946;SDS011;14501;52.282;10.560;2023-01-30T04:02:34;24.33;;;14.30;;
26946;SDS011;14501;52.282;10.560;2023-01-30T04:05:00;26.92;;;14.52;;
26946;SDS011;14501;52.282;10.560;2023-01-30T04:07:27;28.33;;;14.57;;
26946;SDS011;14501;52.282;10.560;2023-01-30T04:09:53;28.35;;;14.75;;
26946;SDS011;14501;52.282;10.560;2023-01-30T04:12:19;28.75;;;15.05;;
26946;SDS011;14501;52.282;10.560;2023-01-30T04:14:44;28.15;;;15.18;;
26946;SDS011;14501;52.282;10.560;2023-01-30T04:17:10;28.40;;;14.30;;
26946;SDS011;14501;52.282;10.560;2023-01-30T04:19:35;28.67;;;15.45;;
26946;SDS011;14501;52.282;10.560;2023-01-30T04:22:01;28.45;;;14.02;;
26946;SDS011;14501;52.282;10.560;2023-01-30T04:24:27;29.40;;;15.63;;
26946;SDS011;14501;52.282;10.560;2023-01-30T04:26:52;32.38;;;15.68;;
26946;SDS011;14501;52.282;10.560;2023-01-30T04:29:18;33.42;;;16.45;;
26946;SDS011;14501;52.282;10.560;2023-01-30T04:31:43;32.15;;;15.52;;
26946;SDS011;14501;52.282;10.560;2023-01-30T04:34:09;35.67;;;16.67;;
26946;SDS011;14501;52.282;10.560;2023-01-30T04:36:34;32.10;;;15.43;;
26946;SDS011;14501;52.282;10.560;2023-01-30T04:39:01;32.63;;;15.50;;
26946;SDS011;14501;52.282;10.560;2023-01-30T04:41:26;31.77;;;15.98;;
26946;SDS011;14501;52.282;10.560;2023-01-30T04:43:52;27.92;;;14.93;;
26946;SDS011;14501;52.282;10.560;2023-01-30T04:46:17;31.13;;;16.65;;
26946;SDS011;14501;52.282;10.560;2023-01-30T04:48:43;33.03;;;16.30;;
26946;SDS011;14501;52.282;10.560;2023-01-30T04:51:09;33.33;;;15.38;;
26946;SDS011;14501;52.282;10.560;2023-01-30T04:53:34;29.05;;;15.00;;
26946;SDS011;14501;52.282;10.560;2023-01-30T04:56:00;31.05;;;15.50;;
26946;SDS011;14501;52.282;10.560;2023-01-30T04:58:26;30.08;;;15.50;;
26946;SDS011;14501;52.282;10.560;2023-01-30T05:00:51;35.20;;;16.25;;
26946;SDS011;14501;52.282;10.560;2023-01-30T05:03:17;29.90;;;14.80;;
26946;SDS011;14501;52.282;10.560;2023-01-30T05:05:46;32.97;;;15.38;;
26946;SDS011;14501;52.282;10.560;2023-01-30T05:08:12;26.90;;;14.38;;
26946;SDS011;14501;52.282;10.560;2023-01-30T05:10:39;34.67;;;15.75;;
26946;SDS011;14501;52.282;10.560;2023-01-30T05:13:04;28.38;;;14.73;;
26946;SDS011;14501;52.282;10.560;2023-01-30T05:15:31;30.55;;;15.30;;
26946;SDS011;14501;52.282;10.560;2023-01-30T05:17:57;28.77;;;15.18;;
26946;SDS011;14501;52.282;10.560;2023-01-30T05:20:23;30.17;;;14.15;;
26946;SDS011;14501;52.282;10.560;2023-01-30T05:22:48;26.20;;;14.38;;
26946;SDS011;14501;52.282;10.560;2023-01-30T05:25:14;33.90;;;14.60;;
26946;SDS011;14501;52.282;10.560;2023-01-30T05:27:40;29.17;;;13.85;;
26946;SDS011;14501;52.282;10.560;2023-01-30T05:30:06;31.10;;;13.45;;
26946;SDS011;14501;52.282;10.560;2023-01-30T05:32:32;27.65;;;14.07;;
26946;SDS011;14501;52.282;10.560;2023-01-30T05:34:58;24.13;;;13.10;;
26946;SDS011;14501;52.282;10.560;2023-01-30T05:37:24;28.75;;;13.60;;
26946;SDS011;14501;52.282;10.560;2023-01-30T05:39:49;25.58;;;13.05;;
26946;SDS011;14501;52.282;10.560;2023-01-30T05:42:15;24.23;;;13.27;;
26946;SDS011;14501;52.282;10.560;2023-01-30T05:44:40;20.85;;;12.25;;
26946;SDS011;14501;52.282;10.560;2023-01-30T05:47:06;23.88;;;11.93;;
26946;SDS011;14501;52.282;10.560;2023-01-30T05:49:32;22.17;;;11.35;;
26946;SDS011;14501;52.282;10.560;2023-01-30T05:51:57;20.80;;;12.00;;
26946;SDS011;14501;52.282;10.560;2023-01-30T05:54:23;23.30;;;12.13;;
26946;SDS011;14501;52.282;10.560;2023-01-30T05:56:48;22.17;;;11.63;;
26946;SDS011;14501;52.282;10.560;2023-01-30T05:59:14;22.48;;;11.88;;
26946;SDS011;14501;52.282;10.560;2023-01-30T06:01:42;21.33;;;11.45;;
26946;SDS011;14501;52.282;10.560;2023-01-30T06:04:08;20.17;;;11.43;;
26946;SDS011;14501;52.282;10.560;2023-01-30T06:06:34;21.67;;;11.80;;
26946;SDS011;14501;52.282;10.560;2023-01-30T06:08:59;23.20;;;11.68;;
26946;SDS011;14501;52.282;10.560;2023-01-30T06:11:25;22.38;;;11.95;;
26946;SDS011;14501;52.282;10.560;2023-01-30T06:13:51;19.58;;;11.05;;
26946;SDS011;14501;52.282;10.560;2023-01-30T06:16:17;20.23;;;11.88;;
26946;SDS011;14501;52.282;10.560;2023-01-30T06:18:44;19.48;;;10.25;;
26946;SDS011;14501;52.282;10.560;2023-01-30T06:21:13;19.85;;;10.40;;
26946;SDS011;14501;52.282;10.560;2023-01-30T06:23:39;19.05;;;10.13;;
26946;SDS011;14501;52.282;10.560;2023-01-30T06:26:06;18.95;;;9.68;;
26946;SDS011;14501;52.282;10.560;2023-01-30T06:28:32;21.48;;;11.82;;
26946;SDS011;14501;52.282;10.560;2023-01-30T06:30:58;18.95;;;10.63;;
26946;SDS011;14501;52.282;10.560;2023-01-30T06:33:24;18.95;;;9.40;;
26946;SDS011;14501;52.282;10.560;2023-01-30T06:35:50;14.38;;;9.10;;
26946;SDS011;14501;52.282;10.560;2023-01-30T06:38:16;15.38;;;9.73;;
26946;SDS011;14501;52.282;10.560;2023-01-30T06:40:46;13.15;;;9.07;;
26946;SDS011;14501;52.282;10.560;2023-01-30T06:43:13;14.95;;;9.13;;
26946;SDS011;14501;52.282;10.560;2023-01-30T06:45:39;16.98;;;9.40;;
26946;SDS011;14501;52.282;10.560;2023-01-30T06:48:04;13.35;;;8.38;;
26946;SDS011;14501;52.282;10.560;2023-01-30T06:50:30;16.92;;;9.18;;
26946;SDS011;14501;52.282;10.560;2023-01-30T06:52:57;14.05;;;8.20;;
26946;SDS011;14501;52.282;10.560;2023-01-30T06:55:25;13.57;;;8.20;;
26946;SDS011;14501;52.282;10.560;2023-01-30T06:58:00;15.30;;;7.63;;
26946;SDS011;14501;52.282;10.560;2023-01-30T07:00:33;12.13;;;6.93;;
26946;SDS011;14501;52.282;10.560;2023-01-30T07:03:00;14.93;;;7.07;;
26946;SDS011;14501;52.282;10.560;2023-01-30T07:05:25;12.50;;;6.53;;
26946;SDS011;14501;52.282;10.560;2023-01-30T07:07:52;11.73;;;6.10;;
26946;SDS011;14501;52.282;10.560;2023-01-30T07:10:18;9.02;;;6.35;;
26946;SDS011;14501;52.282;10.560;2023-01-30T07:12:44;9.57;;;6.40;;
26946;SDS011;14501;52.282;10.560;2023-01-30T07:15:11;13.23;;;6.68;;
26946;SDS011;14501;52.282;10.560;2023-01-30T07:17:38;11.27;;;5.70;;
26946;SDS011;14501;52.282;10.560;2023-01-30T07:20:05;11.63;;;6.25;;
26946;SDS011;14501;52.282;10.560;2023-01-30T07:22:32;12.10;;;6.20;;
26946;SDS011;14501;52.282;10.560;2023-01-30T07:24:58;12.85;;;6.68;;
26946;SDS011;14501;52.282;10.560;2023-01-30T07:27:23;13.15;;;6.00;;
26946;SDS011;14501;52.282;10.560;2023-01-30T07:29:49;10.55;;;6.35;;
26946;SDS011;14501;52.282;10.560;2023-01-30T07:32:17;12.35;;;6.53;;
26946;SDS011;14501;52.282;10.560;2023-01-30T07:34:44;11.30;;;6.13;;
26946;SDS011;14501;52.282;10.560;2023-01-30T07:37:10;14.50;;;7.47;;
26946;SDS011;14501;52.282;10.560;2023-01-30T07:39:36;13.35;;;6.97;;
26946;SDS011;14501;52.282;10.560;2023-01-30T07:42:01;12.38;;;7.32;;
26946;SDS011;14501;52.282;10.560;2023-01-30T07:44:27;15.25;;;7.15;;
26946;SDS011;14501;52.282;10.560;2023-01-30T07:46:53;19.50;;;7.68;;
26946;SDS011;14501;52.282;10.560;2023-01-30T07:49:19;14.77;;;6.75;;
26946;SDS011;14501;52.282;10.560;2023-01-30T07:51:44;16.13;;;6.45;;
26946;SDS011;14501;52.282;10.560;2023-01-30T07:54:10;16.85;;;5.88;;
26946;SDS011;14501;52.282;10.560;2023-01-30T07:56:36;14.48;;;5.82;;
26946;SDS011;14501;52.282;10.560;2023-01-30T07:59:01;18.60;;;5.57;;
26946;SDS011;14501;52.282;10.560;2023-01-30T08:01:29;17.48;;;5.15;;
26946;SDS011;14501;52.282;10.560;2023-01-30T08:03:55;11.38;;;3.70;;
26946;SDS011;14501;52.282;10.560;2023-01-30T08:06:21;13.23;;;4.13;;
26946;SDS011;14501;52.282;10.560;2023-01-30T08:08:47;10.93;;;4.25;;
26946;SDS011;14501;52.282;10.560;2023-01-30T08:11:13;12.70;;;4.00;;
26946;SDS011;14501;52.282;10.560;2023-01-30T08:13:38;21.10;;;3.33;;
26946;SDS011;14501;52.282;10.560;2023-01-30T08:16:05;16.95;;;3.83;;
26946;SDS011;14501;52.282;10.560;2023-01-30T08:18:31;13.27;;;4.88;;
26946;SDS011;14501;52.282;10.560;2023-01-30T08:20:58;17.23;;;3.65;;
26946;SDS011;14501;52.282;10.560;2023-01-30T08:23:24;16.17;;;3.45;;
26946;SDS011;14501;52.282;10.560;2023-01-30T08:25:57;13.95;;;2.97;;
26946;SDS011;14501;52.282;10.560;2023-01-30T08:28:24;14.60;;;3.50;;
26946;SDS011;14501;52.282;10.560;2023-01-30T08:30:51;17.30;;;3.47;;
26946;SDS011;14501;52.282;10.560;2023-01-30T08:33:17;17.23;;;3.22;;
26946;SDS011;14501;52.282;10.560;2023-01-30T08:35:43;16.00;;;3.45;;
26946;SDS011;14501;52.282;10.560;2023-01-30T08:38:09;10.55;;;3.22;;
26946;SDS011;14501;52.282;10.560;2023-01-30T08:40:35;17.00;;;2.80;;
26946;SDS011;14501;52.282;10.560;2023-01-30T08:43:01;14.07;;;2.80;;
26946;SDS011;14501;52.282;10.560;2023-01-30T08:45:27;17.20;;;2.78;;
26946;SDS011;14501;52.282;10.560;2023-01-30T08:47:56;11.45;;;2.70;;
26946;SDS011;14501;52.282;10.560;2023-01-30T08:50:29;12.68;;;2.40;;
26946;SDS011;14501;52.282;10.560;2023-01-30T08:52:55;10.35;;;2.33;;
26946;SDS011;14501;52.282;10.560;2023-01-30T08:55:21;13.98;;;2.63;;
26946;SDS011;14501;52.282;10.560;2023-01-30T08:57:47;25.67;;;3.10;;
26946;SDS011;14501;52.282;10.560;2023-01-30T09:00:13;11.98;;;3.00;;
26946;SDS011;14501;52.282;10.560;2023-01-30T09:02:40;16.17;;;2.85;;
26946;SDS011;14501;52.282;10.560;2023-01-30T09:05:06;13.05;;;3.08;;
26946;SDS011;14501;52.282;10.560;2023-01-30T09:07:33;9.85;;;2.50;;
26946;SDS011;14501;52.282;10.560;2023-01-30T09:09:59;12.65;;;2.47;;
26946;SDS011;14501;52.282;10.560;2023-01-30T09:12:24;17.73;;;3.22;;
26946;SDS011;14501;52.282;10.560;2023-01-30T09:14:50;19.08;;;3.08;;
26946;SDS011;14501;52.282;10.560;2023-01-30T09:17:21;10.38;;;2.17;;
26946;SDS011;14501;52.282;10.560;2023-01-30T09:19:47;17.63;;;3.28;;
26946;SDS011;14501;52.282;10.560;2023-01-30T09:22:13;9.75;;;2.17;;
26946;SDS011;14501;52.282;10.560;2023-01-30T09:24:38;11.95;;;2.65;;
26946;SDS011;14501;52.282;10.560;2023-01-30T09:27:04;12.98;;;2.53;;
26946;SDS011;14501;52.282;10.560;2023-01-30T09:29:30;15.10;;;2.90;;
26946;SDS011;14501;52.282;10.560;2023-01-30T09:31:55;15.05;;;2.53;;
26946;SDS011;14501;52.282;10.560;2023-01-30T09:34:22;14.27;;;2.88;;
26946;SDS011;14501;52.282;10.560;2023-01-30T09:36:51;12.25;;;1.98;;
26946;SDS011;14501;52.282;10.560;2023-01-30T09:39:19;15.18;;;3.03;;
26946;SDS011;14501;52.282;10.560;2023-01-30T09:42:06;12.77;;;2.75;;
26946;SDS011;14501;52.282;10.560;2023-01-30T09:53:21;14.82;;;2.28;;
26946;SDS011;14501;52.282;10.560;2023-01-30T09:55:49;17.27;;;2.78;;
26946;SDS011;14501;52.282;10.560;2023-01-30T09:58:15;16.30;;;2.45;;
26946;SDS011;14501;52.282;10.560;2023-01-30T10:00:47;15.73;;;2.75;;
26946;SDS011;14501;52.282;10.560;2023-01-30T10:03:22;17.88;;;2.70;;
26946;SDS011;14501;52.282;10.560;2023-01-30T10:06:13;12.80;;;2.40;;
26946;SDS011;14501;52.282;10.560;2023-01-30T10:30:42;17.63;;;2.58;;
26946;SDS011;14501;52.282;10.560;2023-01-30T10:33:25;13.38;;;2.20;;
26946;SDS011;14501;52.282;10.560;2023-01-30T10:35:57;12.43;;;2.90;;
26946;SDS011;14501;52.282;10.560;2023-01-30T10:38:36;17.92;;;3.00;;
26946;SDS011;14501;52.282;10.560;2023-01-30T10:43:43;13.68;;;2.65;;
26946;SDS011;14501;52.282;10.560;2023-01-30T10:54:19;14.02;;;2.22;;
26946;SDS011;14501;52.282;10.560;2023-01-30T10:56:54;17.30;;;3.20;;
26946;SDS011;14501;52.282;10.560;2023-01-30T10:59:57;13.00;;;2.35;;
26946;SDS011;14501;52.282;10.560;2023-01-30T11:05:09;13.63;;;2.45;;
26946;SDS011;14501;52.282;10.560;2023-01-30T11:07:44;17.80;;;2.40;;
26946;SDS011;14501;52.282;10.560;2023-01-30T11:10:32;9.27;;;2.10;;
26946;SDS011;14501;52.282;10.560;2023-01-30T11:13:01;11.75;;;2.92;;
26946;SDS011;14501;52.282;10.560;2023-01-30T11:15:42;16.20;;;2.53;;
26946;SDS011;14501;52.282;10.560;2023-01-30T11:18:10;15.68;;;2.80;;
26946;SDS011;14501;52.282;10.560;2023-01-30T11:20:41;13.60;;;2.53;;
26946;SDS011;14501;52.282;10.560;2023-01-30T11:25:58;13.45;;;2.55;;
26946;SDS011;14501;52.282;10.560;2023-01-30T11:28:26;16.75;;;2.38;;
26946;SDS011;14501;52.282;10.560;2023-01-30T11:30:53;15.38;;;2.65;;
26946;SDS011;14501;52.282;10.560;2023-01-30T11:33:23;9.15;;;2.03;;
26946;SDS011;14501;52.282;10.560;2023-01-30T11:36:04;13.85;;;2.72;;
26946;SDS011;14501;52.282;10.560;2023-01-30T11:39:05;19.02;;;2.83;;
26946;SDS011;14501;52.282;10.560;2023-01-30T11:44:30;10.80;;;1.98;;
26946;SDS011;14501;52.282;10.560;2023-01-30T11:46:58;8.32;;;2.45;;
26946;SDS011;14501;52.282;10.560;2023-01-30T11:49:27;10.77;;;2.42;;
26946;SDS011;14501;52.282;10.560;2023-01-30T11:51:57;15.38;;;2.70;;
26946;SDS011;14501;52.282;10.560;2023-01-30T11:54:27;10.60;;;2.65;;
26946;SDS011;14501;52.282;10.560;2023-01-30T11:57:00;15.13;;;2.40;;
26946;SDS011;14501;52.282;10.560;2023-01-30T11:59:34;14.30;;;2.50;;
26946;SDS011;14501;52.282;10.560;2023-01-30T12:02:19;15.90;;;2.70;;
26946;SDS011;14501;52.282;10.560;2023-01-30T12:04:50;11.93;;;2.20;;
26946;SDS011;14501;52.282;10.560;2023-01-30T12:07:23;13.65;;;2.58;;
26946;SDS011;14501;52.282;10.560;2023-01-30T12:09:50;9.18;;;1.98;;
26946;SDS011;14501;52.282;10.560;2023-01-30T12:20:37;14.25;;;2.25;;
26946;SDS011;14501;52.282;10.560;2023-01-30T12:33:48;20.10;;;3.58;;
26946;SDS011;14501;52.282;10.560;2023-01-30T12:38:56;14.13;;;2.35;;
26946;SDS011;14501;52.282;10.560;2023-01-30T12:44:21;11.70;;;2.13;;
26946;SDS011;14501;52.282;10.560;2023-01-30T12:50:14;11.60;;;2.10;;
26946;SDS011;14501;52.282;10.560;2023-01-30T13:00:49;6.70;;;1.48;;
26946;SDS011;14501;52.282;10.560;2023-01-30T13:06:03;5.18;;;1.60;;
26946;SDS011;14501;52.282;10.560;2023-01-30T13:09:17;6.72;;;1.05;;
26946;SDS011;14501;52.282;10.560;2023-01-30T13:23:09;5.35;;;1.27;;
26946;SDS011;14501;52.282;10.560;2023-01-30T13:28:40;5.88;;;1.35;;
26946;SDS011;14501;52.282;10.560;2023-01-30T13:31:11;4.57;;;1.77;;
26946;SDS011;14501;52.282;10.560;2023-01-30T13:33:45;6.25;;;1.50;;
26946;SDS011;14501;52.282;10.560;2023-01-30T13:36:18;8.57;;;2.42;;
26946;SDS011;14501;52.282;10.560;2023-01-30T13:38:53;12.70;;;2.25;;
26946;SDS011;14501;52.282;10.560;2023-01-30T13:41:30;11.35;;;1.90;;
26946;SDS011;14501;52.282;10.560;2023-01-30T13:44:02;10.45;;;2.28;;
26946;SDS011;14501;52.282;10.560;2023-01-30T13:46:40;12.95;;;2.35;;
26946;SDS011;14501;52.282;10.560;2023-01-30T13:49:10;11.95;;;2.70;;
26946;SDS011;14501;52.282;10.560;2023-01-30T13:51:47;10.73;;;2.47;;
26946;SDS011;14501;52.282;10.560;2023-01-30T14:02:20;13.43;;;2.17;;
26946;SDS011;14501;52.282;10.560;2023-01-30T14:04:48;11.57;;;2.00;;
26946;SDS011;14501;52.282;10.560;2023-01-30T14:07:29;13.80;;;2.03;;
26946;SDS011;14501;52.282;10.560;2023-01-30T14:12:43;11.02;;;1.75;;
26946;SDS011;14501;52.282;10.560;2023-01-30T14:20:44;15.23;;;3.65;;
26946;SDS011;14501;52.282;10.560;2023-01-30T14:23:27;11.98;;;2.13;;
26946;SDS011;14501;52.282;10.560;2023-01-30T14:25:57;12.85;;;2.35;;
26946;SDS011;14501;52.282;10.560;2023-01-30T14:30:49;15.60;;;2.92;;
26946;SDS011;14501;52.282;10.560;2023-01-30T14:36:28;13.05;;;2.15;;
26946;SDS011;14501;52.282;10.560;2023-01-30T14:38:41;12.98;;;2.50;;
26946;SDS011;14501;52.282;10.560;2023-01-30T14:41:22;9.98;;;2.30;;
26946;SDS011;14501;52.282;10.560;2023-01-30T14:43:52;11.23;;;2.42;;
26946;SDS011;14501;52.282;10.560;2023-01-30T15:07:23;22.80;;;4.47;;
26946;SDS011;14501;52.282;10.560;2023-01-30T15:10:00;13.30;;;3.25;;
26946;SDS011;14501;52.282;10.560;2023-01-30T15:12:45;14.93;;;2.50;;
26946;SDS011;14501;52.282;10.560;2023-01-30T15:24:13;11.82;;;2.55;;
26946;SDS011;14501;52.282;10.560;2023-01-30T15:32:40;16.30;;;3.00;;
26946;SDS011;14501;52.282;10.560;2023-01-30T15:37:37;13.18;;;2.10;;
26946;SDS011;14501;52.282;10.560;2023-01-30T15:42:44;16.05;;;2.38;;
26946;SDS011;14501;52.282;10.560;2023-01-30T15:48:15;15.82;;;2.33;;
26946;SDS011;14501;52.282;10.560;2023-01-30T15:50:46;9.02;;;2.35;;
26946;SDS011;14501;52.282;10.560;2023-01-30T15:53:14;10.32;;;2.45;;
26946;SDS011;14501;52.282;10.560;2023-01-30T15:55:40;20.20;;;3.00;;
26946;SDS011;14501;52.282;10.560;2023-01-30T15:58:15;15.18;;;2.45;;
26946;SDS011;14501;52.282;10.560;2023-01-30T16:00:44;13.90;;;2.38;;
26946;SDS011;14501;52.282;10.560;2023-01-30T16:03:26;15.48;;;3.55;;
26946;SDS011;14501;52.282;10.560;2023-01-30T16:05:56;22.67;;;3.38;;
26946;SDS011;14501;52.282;10.560;2023-01-30T16:08:23;12.65;;;3.53;;
26946;SDS011;14501;52.282;10.560;2023-01-30T16:10:53;16.92;;;3.05;;
26946;SDS011;14501;52.282;10.560;2023-01-30T16:13:19;29.25;;;3.35;;
26946;SDS011;14501;52.282;10.560;2023-01-30T16:18:51;11.27;;;2.92;;
26946;SDS011;14501;52.282;10.560;2023-01-30T16:26:45;17.67;;;2.88;;
26946;SDS011;14501;52.282;10.560;2023-01-30T16:29:17;13.20;;;2.60;;
26946;SDS011;14501;52.282;10.560;2023-01-30T16:31:46;18.60;;;2.95;;
26946;SDS011;14501;52.282;10.560;2023-01-30T16:34:29;20.08;;;3.38;;
26946;SDS011;14501;52.282;10.560;2023-01-30T16:37:22;20.90;;;4.13;;
26946;SDS011;14501;52.282;10.560;2023-01-30T16:42:38;16.05;;;3.58;;
26946;SDS011;14501;52.282;10.560;2023-01-30T16:47:37;16.23;;;2.40;;
26946;SDS011;14501;52.282;10.560;2023-01-30T16:50:04;15.82;;;2.80;;
26946;SDS011;14501;52.282;10.560;2023-01-30T16:52:45;26.90;;;3.47;;
26946;SDS011;14501;52.282;10.560;2023-01-30T16:55:18;19.45;;;3.13;;
26946;SDS011;14501;52.282;10.560;2023-01-30T16:57:50;12.95;;;2.72;;
26946;SDS011;14501;52.282;10.560;2023-01-30T17:02:57;13.57;;;2.63;;
26946;SDS011;14501;52.282;10.560;2023-01-30T17:05:43;17.40;;;2.50;;
26946;SDS011;14501;52.282;10.560;2023-01-30T17:11:09;22.38;;;3.17;;
26946;SDS011;14501;52.282;10.560;2023-01-30T17:13:41;14.05;;;2.47;;
26946;SDS011;14501;52.282;10.560;2023-01-30T17:18:57;20.35;;;3.70;;
26946;SDS011;14501;52.282;10.560;2023-01-30T17:21:24;22.20;;;2.92;;
26946;SDS011;14501;52.282;10.560;2023-01-30T17:24:12;10.93;;;2.72;;
26946;SDS011;14501;52.282;10.560;2023-01-30T17:26:40;15.18;;;2.97;;
26946;SDS011;14501;52.282;10.560;2023-01-30T17:29:08;18.00;;;3.22;;
26946;SDS011;14501;52.282;10.560;2023-01-30T17:31:39;14.82;;;3.42;;
26946;SDS011;14501;52.282;10.560;2023-01-30T17:34:10;13.15;;;2.35;;
26946;SDS011;14501;52.282;10.560;2023-01-30T17:36:37;15.25;;;2.63;;
26946;SDS011;14501;52.282;10.560;2023-01-30T17:39:04;9.98;;;2.17;;
26946;SDS011;14501;52.282;10.560;2023-01-30T17:41:36;15.40;;;2.97;;
26946;SDS011;14501;52.282;10.560;2023-01-30T17:44:02;17.52;;;3.10;;
26946;SDS011;14501;52.282;10.560;2023-01-30T17:46:32;16.88;;;2.60;;
26946;SDS011;14501;52.282;10.560;2023-01-30T17:48:58;11.15;;;2.58;;
26946;SDS011;14501;52.282;10.560;2023-01-30T17:51:23;8.95;;;2.22;;
26946;SDS011;14501;52.282;10.560;2023-01-30T17:53:49;19.90;;;2.85;;
26946;SDS011;14501;52.282;10.560;2023-01-30T17:56:27;9.82;;;3.03;;
26946;SDS011;14501;52.282;10.560;2023-01-30T17:58:56;11.18;;;2.53;;